Time;durP1;ratioP1;P1;durP2;ratioP2;P2;SDS_P1;SDS_P2;PMS_P1;PMS_P2;Temp;Humidity;BMP_temperature;BMP_pressure;BME280_temperature;BME280_humidity;BME280_pressure;Samples;Min_cycle;Max_cycle;Signal;HPM_P1;HPM_P2
2020/12/14 00:02:11;;;;;;;30.02;14.68;;;;;;;2.40;74.20;100222.06;5084726;28;20620;-66
2020/12/14 00:04:37;;;;;;;28.17;14.32;;;;;;;2.39;74.38;100219.47;5089911;28;20466;-67
2020/12/14 00:07:04;;;;;;;31.60;15.48;;;;;;;2.40;74.14;100216.00;5090681;28;20048;-66
2020/12/14 00:09:31;;;;;;;29.92;16.27;;;;;;;2.40;74.37;100211.69;5091180;28;20052;-65
2020/12/14 00:11:57;;;;;;;32.28;15.93;;;;;;;2.38;73.97;100222.94;5090347;28;20447;-66
2020/12/14 00:14:23;;;;;;;32.88;15.15;;;;;;;2.36;74.29;100219.50;5090434;28;20131;-66
2020/12/14 00:16:50;;;;;;;34.92;14.80;;;;;;;2.38;74.15;100217.75;5090403;28;20048;-66
2020/12/14 00:19:16;;;;;;;33.45;15.38;;;;;;;2.39;74.28;100219.47;5090795;28;20542;-66
2020/12/14 00:21:42;;;;;;;27.13;13.85;;;;;;;2.42;74.09;100220.31;5090179;28;20493;-66
2020/12/14 00:24:09;;;;;;;29.73;14.25;;;;;;;2.43;73.85;100216.00;5090304;28;20439;-66
2020/12/14 00:26:35;;;;;;;31.40;15.90;;;;;;;2.42;74.12;100222.03;5090126;28;20047;-66
2020/12/14 00:29:01;;;;;;;36.05;15.73;;;;;;;2.44;74.08;100225.47;5090954;28;20048;-65
2020/12/14 00:31:27;;;;;;;31.25;15.20;;;;;;;2.41;73.88;100234.13;5089411;28;20144;-66
2020/12/14 00:33:54;;;;;;;30.25;15.38;;;;;;;2.41;74.09;100235.84;5090850;28;20158;-66
2020/12/14 00:36:20;;;;;;;33.65;17.08;;;;;;;2.41;74.06;100236.69;5091048;28;20044;-67
2020/12/14 00:38:46;;;;;;;28.00;14.48;;;;;;;2.40;74.04;100240.16;5091056;28;20048;-66
2020/12/14 00:41:18;;;;;;;30.17;15.93;;;;;;;2.38;74.15;100238.44;5090392;28;20058;-66
2020/12/14 00:43:45;;;;;;;35.58;17.55;;;;;;;2.37;74.05;100239.31;5090666;28;20135;-66
2020/12/14 00:46:12;;;;;;;33.40;16.48;;;;;;;2.32;73.98;100238.50;5090841;28;20044;-66
2020/12/14 00:48:38;;;;;;;31.15;15.52;;;;;;;2.32;73.93;100248.84;5090730;28;20383;-67
2020/12/14 00:51:05;;;;;;;34.92;17.02;;;;;;;2.33;73.98;100250.56;5090855;28;20055;-66
2020/12/14 00:53:32;;;;;;;33.75;16.65;;;;;;;2.29;74.01;100247.13;5090608;28;20076;-66
2020/12/14 00:56:01;;;;;;;33.83;16.58;;;;;;;2.27;74.12;100247.97;5090752;28;20047;-67
2020/12/14 00:58:27;;;;;;;32.60;16.60;;;;;;;2.24;74.32;100250.59;5091801;28;20122;-67
2020/12/14 01:00:53;;;;;;;40.38;17.48;;;;;;;2.25;74.16;100247.13;5095660;28;20048;-66
2020/12/14 01:03:19;;;;;;;35.97;17.40;;;;;;;2.24;74.21;100250.59;5095692;28;20109;-66
2020/12/14 01:05:45;;;;;;;30.77;15.55;;;;;;;2.24;74.32;100259.19;5095380;28;20066;-65
2020/12/14 01:08:12;;;;;;;29.05;15.68;;;;;;;2.24;74.13;100248.84;5095311;28;20050;-66
2020/12/14 01:10:38;;;;;;;30.30;16.98;;;;;;;2.26;73.99;100244.53;5095422;28;20411;-66
2020/12/14 01:13:04;;;;;;;31.77;16.15;;;;;;;2.28;74.19;100241.94;5095460;28;20043;-66
2020/12/14 01:15:30;;;;;;;29.08;15.20;;;;;;;2.26;74.05;100238.50;5095117;28;20066;-67
2020/12/14 01:17:56;;;;;;;30.50;15.00;;;;;;;2.25;74.37;100249.72;5095069;28;20052;-66
2020/12/14 01:20:22;;;;;;;32.55;14.80;;;;;;;2.26;74.27;100246.25;5095453;28;20047;-68
2020/12/14 01:22:48;;;;;;;28.38;14.80;;;;;;;2.26;74.30;100243.69;5095217;28;20050;-66
2020/12/14 01:25:15;;;;;;;26.20;13.70;;;;;;;2.24;74.33;100258.34;5095206;28;20048;-68
2020/12/14 01:27:41;;;;;;;28.90;14.20;;;;;;;2.26;74.17;100264.38;5095169;28;20048;-67
2020/12/14 01:30:07;;;;;;;27.00;13.38;;;;;;;2.29;74.12;100256.59;5094881;28;20406;-67
2020/12/14 01:32:33;;;;;;;27.02;12.95;;;;;;;2.28;74.13;100260.03;5094647;28;20407;-66
2020/12/14 01:34:59;;;;;;;29.25;14.07;;;;;;;2.33;74.04;100259.19;5095276;28;20047;-67
2020/12/14 01:37:25;;;;;;;27.40;13.75;;;;;;;2.38;73.95;100259.16;5095034;28;20046;-66
2020/12/14 01:39:51;;;;;;;27.25;14.68;;;;;;;2.41;73.93;100259.13;5095152;28;20047;-66
2020/12/14 01:42:22;;;;;;;28.20;14.55;;;;;;;2.42;73.89;100260.84;5094900;28;20050;-66
2020/12/14 01:44:48;;;;;;;27.13;11.20;;;;;;;2.45;73.93;100260.81;5095004;28;20443;-65
2020/12/14 01:47:20;;;;;;;29.40;15.43;;;;;;;2.44;73.84;100270.31;5094792;28;20050;-67
2020/12/14 01:49:46;;;;;;;29.25;14.57;;;;;;;2.44;73.72;100266.88;5094910;28;20043;-66
2020/12/14 01:52:12;;;;;;;26.02;14.93;;;;;;;2.48;73.92;100268.56;5094730;28;20058;-66
2020/12/14 01:54:39;;;;;;;30.70;14.98;;;;;;;2.47;74.09;100268.59;5094821;28;20046;-66
2020/12/14 01:57:05;;;;;;;32.50;14.35;;;;;;;2.48;73.85;100270.28;5094548;28;20048;-67
2020/12/14 01:59:32;;;;;;;30.35;15.00;;;;;;;2.54;73.69;100275.47;5094705;28;20386;-65
2020/12/14 02:01:58;;;;;;;32.90;15.63;;;;;;;2.55;73.78;100269.41;5094291;28;20048;-65
2020/12/14 02:04:24;;;;;;;32.83;15.40;;;;;;;2.54;73.61;100268.56;5094187;28;20060;-66
2020/12/14 02:06:50;;;;;;;31.80;16.23;;;;;;;2.55;73.68;100264.25;5094339;28;20040;-67
2020/12/14 02:09:16;;;;;;;31.60;13.90;;;;;;;2.54;73.89;100265.97;5094255;28;20044;-66
2020/12/14 02:11:42;;;;;;;31.02;13.85;;;;;;;2.52;73.75;100272.88;5094244;28;20091;-66
2020/12/14 02:14:08;;;;;;;32.88;13.82;;;;;;;2.49;73.81;100285.81;5094466;28;20046;-67
2020/12/14 02:16:35;;;;;;;28.20;14.18;;;;;;;2.44;73.87;100285.84;5094289;28;20040;-66
2020/12/14 02:19:01;;;;;;;29.30;15.25;;;;;;;2.43;73.94;100281.53;5094100;28;20502;-66
2020/12/14 02:21:27;;;;;;;28.50;12.95;;;;;;;2.40;73.90;100283.28;5093855;28;20380;-66
2020/12/14 02:23:53;;;;;;;27.83;14.40;;;;;;;2.35;73.88;100280.72;5094132;28;20135;-67
2020/12/14 02:26:20;;;;;;;26.85;12.85;;;;;;;2.33;74.01;100273.84;5093848;28;20048;-66
2020/12/14 02:28:46;;;;;;;30.85;14.82;;;;;;;2.32;74.20;100270.41;5094076;28;20048;-67
2020/12/14 02:31:12;;;;;;;28.30;14.25;;;;;;;2.34;74.09;100278.16;5094004;28;20050;-66
2020/12/14 02:33:38;;;;;;;29.52;14.43;;;;;;;2.29;74.25;100275.59;5094148;28;20048;-65
2020/12/14 02:36:05;;;;;;;28.77;14.43;;;;;;;2.24;74.22;100272.13;5093942;28;20048;-66
2020/12/14 02:38:31;;;;;;;31.90;15.30;;;;;;;2.22;74.33;100268.69;5093751;28;20075;-66
2020/12/14 02:40:57;;;;;;;33.55;15.23;;;;;;;2.24;74.33;100269.56;5093694;28;20134;-67
2020/12/14 02:43:24;;;;;;;29.00;13.32;;;;;;;2.25;74.31;100265.22;5093714;28;20066;-68
2020/12/14 02:45:50;;;;;;;34.95;14.93;;;;;;;2.27;74.34;100266.09;5093695;28;20040;-67
2020/12/14 02:48:16;;;;;;;29.90;14.65;;;;;;;2.28;74.24;100266.06;5093646;28;20044;-66
2020/12/14 02:50:42;;;;;;;34.15;15.13;;;;;;;2.33;74.08;100263.50;5093652;28;20127;-67
2020/12/14 02:53:08;;;;;;;28.33;15.18;;;;;;;2.34;74.14;100272.97;5093508;28;20047;-66
2020/12/14 02:55:34;;;;;;;33.03;15.95;;;;;;;2.38;74.08;100274.66;5093562;28;20153;-67
2020/12/14 02:58:00;;;;;;;25.75;14.18;;;;;;;2.37;73.94;100272.97;5091552;28;20048;-67
2020/12/14 03:00:27;;;;;;;27.75;14.13;;;;;;;2.42;74.17;100278.97;5092442;28;20052;-67
2020/12/14 03:02:53;;;;;;;25.55;14.05;;;;;;;2.43;73.78;100280.69;5093130;28;20496;-67
2020/12/14 03:05:19;;;;;;;31.00;15.23;;;;;;;2.45;74.01;100289.28;5092911;28;20392;-66
2020/12/14 03:07:46;;;;;;;28.20;15.02;;;;;;;2.47;73.98;100289.28;5092970;28;20051;-67
2020/12/14 03:10:12;;;;;;;38.75;19.08;;;;;;;2.49;73.94;100293.56;5093240;28;20062;-66
2020/12/14 03:12:38;;;;;;;36.40;18.45;;;;;;;2.52;73.95;100288.41;5093059;28;20048;-66
2020/12/14 03:15:04;;;;;;;31.70;15.55;;;;;;;2.55;73.74;100300.47;5093291;28;20051;-67
2020/12/14 03:17:31;;;;;;;29.95;15.57;;;;;;;2.53;73.90;100291.84;5092624;28;20503;-66
2020/12/14 03:19:57;;;;;;;31.73;14.93;;;;;;;2.54;73.65;100299.63;5093265;28;20056;-66
2020/12/14 03:22:23;;;;;;;31.02;16.13;;;;;;;2.57;73.62;100296.16;5092351;28;20360;-66
2020/12/14 03:24:49;;;;;;;31.85;16.08;;;;;;;2.56;73.72;100297.88;5092996;28;20476;-66
2020/12/14 03:27:15;;;;;;;35.97;17.70;;;;;;;2.57;73.87;100298.72;5092560;28;20495;-67
2020/12/14 03:29:41;;;;;;;38.70;17.88;;;;;;;2.56;73.91;100300.47;5093068;28;20048;-65
2020/12/14 03:32:07;;;;;;;39.20;19.48;;;;;;;2.56;73.65;100300.47;5090963;28;20506;-66
2020/12/14 03:34:34;;;;;;;41.05;18.65;;;;;;;2.55;73.60;100303.91;5091997;28;20483;-66
2020/12/14 03:37:00;;;;;;;40.88;20.45;;;;;;;2.52;73.74;100301.34;5092738;28;20050;-65
2020/12/14 03:39:26;;;;;;;41.55;20.25;;;;;;;2.49;73.95;100298.75;5092953;28;20050;-65
2020/12/14 03:41:52;;;;;;;44.72;19.17;;;;;;;2.47;74.14;100292.72;5093198;28;20048;-66
2020/12/14 03:44:18;;;;;;;42.08;19.38;;;;;;;2.46;73.97;100293.59;5096608;28;20135;-66
2020/12/14 03:46:44;;;;;;;35.58;17.55;;;;;;;2.51;74.03;100294.47;5092302;28;20047;-65
2020/12/14 03:49:10;;;;;;;35.58;16.35;;;;;;;2.53;73.77;100290.13;5092303;28;20044;-65
2020/12/14 03:51:38;;;;;;;34.92;16.55;;;;;;;2.54;73.64;100291.84;5092128;28;20044;-65
2020/12/14 03:54:04;;;;;;;33.78;15.77;;;;;;;2.53;73.73;100292.72;5092520;28;20468;-67
2020/12/14 03:56:30;;;;;;;29.10;14.32;;;;;;;2.52;73.79;100303.09;5092125;28;20495;-67
2020/12/14 03:58:57;;;;;;;39.47;15.63;;;;;;;2.50;73.69;100295.31;5092271;28;20044;-66
2020/12/14 04:01:26;;;;;;;33.00;15.50;;;;;;;2.50;73.88;100294.44;5092114;28;20048;-66
2020/12/14 04:03:53;;;;;;;35.97;14.98;;;;;;;2.53;73.81;100297.91;5092118;28;20101;-66
2020/12/14 04:06:19;;;;;;;28.45;15.07;;;;;;;2.53;73.66;100294.44;5092533;28;20059;-65
2020/12/14 04:08:47;;;;;;;36.38;16.58;;;;;;;2.49;73.91;100296.16;5092356;28;20050;-66
2020/12/14 04:11:13;;;;;;;35.97;16.40;;;;;;;2.49;73.90;100296.16;5092222;28;20052;-65
2020/12/14 04:13:39;;;;;;;40.47;16.75;;;;;;;2.51;73.79;100291.88;5092277;28;20059;-65
2020/12/14 04:16:05;;;;;;;34.33;17.50;;;;;;;2.54;73.84;100297.03;5091989;28;20484;-65
2020/12/14 04:18:31;;;;;;;33.63;15.07;;;;;;;2.56;73.60;100287.53;5092130;28;20044;-66
2020/12/14 04:20:57;;;;;;;35.70;17.10;;;;;;;2.53;73.73;100282.38;5092159;28;20044;-67
2020/12/14 04:23:23;;;;;;;34.58;15.52;;;;;;;2.57;73.92;100293.56;5091928;28;20055;-67
2020/12/14 04:25:50;;;;;;;31.73;14.52;;;;;;;2.59;73.96;100289.22;5092082;28;20048;-66
2020/12/14 04:28:17;;;;;;;33.03;14.43;;;;;;;2.57;73.70;100291.84;5092140;28;20044;-66
2020/12/14 04:30:43;;;;;;;31.02;14.52;;;;;;;2.55;73.89;100292.72;5092061;28;20130;-67
2020/12/14 04:33:09;;;;;;;31.38;14.73;;;;;;;2.54;73.85;100299.63;5094222;28;20048;-66
2020/12/14 04:35:35;;;;;;;27.63;13.85;;;;;;;2.58;73.61;100298.72;5096065;28;20071;-66
2020/12/14 04:38:01;;;;;;;31.88;15.43;;;;;;;2.60;73.58;100302.16;5095626;28;20054;-66
2020/12/14 04:40:28;;;;;;;35.92;17.48;;;;;;;2.62;73.61;100310.78;5095864;28;20515;-67
2020/12/14 04:42:57;;;;;;;37.13;16.30;;;;;;;2.60;73.81;100309.94;5095723;28;20054;-66
2020/12/14 04:45:24;;;;;;;35.63;17.38;;;;;;;2.57;73.71;100319.44;5095907;28;20060;-66
2020/12/14 04:47:50;;;;;;;35.63;17.00;;;;;;;2.54;73.83;100320.31;5095796;28;20040;-67
2020/12/14 04:50:16;;;;;;;35.47;17.08;;;;;;;2.53;73.91;100322.91;5095906;28;20044;-69
2020/12/14 04:52:43;;;;;;;36.20;15.70;;;;;;;2.51;73.79;100320.34;5095498;28;20429;-66
2020/12/14 04:55:10;;;;;;;33.90;16.02;;;;;;;2.48;73.95;100333.25;5095871;28;20051;-67
2020/12/14 04:57:38;;;;;;;33.78;15.77;;;;;;;2.46;73.94;100345.34;5095788;28;20483;-67
2020/12/14 05:00:06;;;;;;;34.83;15.77;;;;;;;2.43;74.17;100345.38;5095160;28;20044;-66
2020/12/14 05:02:33;;;;;;;51.50;21.58;;;;;;;2.44;73.95;100352.25;5095614;28;20051;-68
2020/12/14 05:04:59;;;;;;;59.00;22.80;;;;;;;2.44;73.96;100349.66;5094874;28;20507;-67
2020/12/14 05:07:38;;;;;;;46.17;21.92;;;;;;;2.42;74.06;100354.00;5095311;28;20483;-65
2020/12/14 05:10:04;;;;;;;41.75;20.40;;;;;;;2.41;73.88;100353.13;5095701;28;20047;-67
2020/12/14 05:12:30;;;;;;;39.20;19.73;;;;;;;2.42;74.31;100359.16;5095383;28;20040;-66
2020/12/14 05:15:00;;;;;;;45.97;21.30;;;;;;;2.41;74.24;100367.78;5095611;28;20406;-65
2020/12/14 05:17:27;;;;;;;43.65;20.75;;;;;;;2.42;74.10;100378.13;5095348;28;20479;-66
2020/12/14 05:19:53;;;;;;;43.10;21.30;;;;;;;2.42;74.02;100379.88;5095464;28;20050;-66
2020/12/14 05:22:19;;;;;;;40.60;18.55;;;;;;;2.44;74.07;100381.59;5095243;28;20130;-66
2020/12/14 05:24:50;;;;;;;41.88;20.00;;;;;;;2.43;74.15;100382.44;5095314;28;20054;-68
2020/12/14 05:27:30;;;;;;;39.70;18.80;;;;;;;2.44;74.17;100380.72;5095199;28;20113;-67
2020/12/14 05:29:58;;;;;;;44.30;19.33;;;;;;;2.46;74.01;100386.75;5094804;28;20054;-66
2020/12/14 05:32:24;;;;;;;38.20;19.50;;;;;;;2.45;74.00;100390.19;5095019;28;20050;-66
2020/12/14 05:34:51;;;;;;;43.25;19.98;;;;;;;2.44;74.18;100394.53;5095162;28;20086;-67
2020/12/14 05:37:18;;;;;;;49.95;21.33;;;;;;;2.50;73.97;100408.28;5095006;28;20044;-67
2020/12/14 05:39:45;;;;;;;48.83;21.52;;;;;;;2.46;74.05;100404.84;5095121;28;20050;-66
2020/12/14 05:42:17;;;;;;;41.38;21.48;;;;;;;2.38;74.54;100398.84;5094857;28;20040;-66
2020/12/14 05:44:43;;;;;;;;;;;;;;;2.50;73.94;100404.00;5094149;28;20060;-67
2020/12/14 05:47:23;;;;;;;41.78;19.05;;;;;;;2.37;74.18;100402.31;5094500;28;20397;-66
2020/12/14 05:49:50;;;;;;;43.78;20.33;;;;;;;2.38;74.12;100404.03;5094847;28;20384;-65
2020/12/14 05:52:19;;;;;;;45.30;19.85;;;;;;;2.38;73.94;100404.03;5094588;28;20047;-68
2020/12/14 05:54:51;;;;;;;43.60;21.00;;;;;;;2.37;74.38;100403.19;5094751;28;20083;-67
2020/12/14 05:57:30;;;;;;;49.40;21.02;;;;;;;2.42;74.12;100401.44;5093991;28;20407;-67
2020/12/14 05:59:59;;;;;;;44.45;20.50;;;;;;;2.42;74.17;100398.84;5094007;28;20131;-66
2020/12/14 06:02:26;;;;;;;43.35;19.70;;;;;;;2.42;74.12;100400.56;5046150;28;20043;-69
2020/12/14 06:04:56;;;;;;;49.78;20.85;;;;;;;2.43;74.23;100402.28;5111708;28;20158;-66
2020/12/14 06:07:24;;;;;;;43.40;19.00;;;;;;;2.44;74.13;100404.00;5111347;28;20541;-66
2020/12/14 06:10:02;;;;;;;34.17;17.95;;;;;;;2.44;74.22;100397.09;5111996;28;20043;-65
2020/12/14 06:12:30;;;;;;;39.65;16.88;;;;;;;2.45;74.20;100406.59;5110276;28;20053;-66
2020/12/14 06:15:00;;;;;;;40.38;16.73;;;;;;;2.40;74.26;100412.66;5091628;28;20071;-65
2020/12/14 06:17:27;;;;;;;41.47;18.05;;;;;;;2.38;74.25;100406.63;5012956;28;20052;-65
2020/12/14 06:20:01;;;;;;;39.85;18.55;;;;;;;2.37;74.46;100403.19;5032389;28;20047;-64
2020/12/14 06:22:29;;;;;;;40.63;19.45;;;;;;;2.39;74.30;100400.56;5051536;28;20037;-65
2020/12/14 06:24:59;;;;;;;42.88;19.23;;;;;;;2.37;74.30;100400.59;5069756;28;20131;-65
2020/12/14 06:27:27;;;;;;;47.75;20.17;;;;;;;2.37;74.41;100404.91;5069641;28;20041;-65
2020/12/14 06:29:53;;;;;;;47.13;19.33;;;;;;;2.37;74.38;100412.66;5068906;28;20114;-66
2020/12/14 06:32:40;;;;;;;44.15;19.13;;;;;;;2.32;74.39;100414.41;5068428;28;20082;-65
2020/12/14 06:35:15;;;;;;;39.70;18.88;;;;;;;2.28;74.45;100421.28;5068164;28;20048;-66
2020/12/14 06:37:50;;;;;;;50.50;21.05;;;;;;;2.31;74.54;100429.06;5069149;28;20048;-65
2020/12/14 06:40:16;;;;;;;58.30;24.58;;;;;;;2.33;74.27;100427.34;5069783;28;20048;-66
2020/12/14 06:42:42;;;;;;;55.92;23.63;;;;;;;2.33;74.44;100424.75;5070448;28;20243;-66
2020/12/14 06:45:10;;;;;;;53.15;24.33;;;;;;;2.36;74.41;100431.63;5068082;28;20059;-65
2020/12/14 06:47:50;;;;;;;50.40;23.33;;;;;;;2.31;74.34;100428.22;5068265;28;20147;-65
2020/12/14 06:50:31;;;;;;;48.35;21.48;;;;;;;2.33;74.45;100437.69;5087871;28;20479;-66
2020/12/14 06:52:58;;;;;;;;;;;;;;;2.42;74.12;100435.06;5091701;28;20415;-65
2020/12/14 06:55:42;;;;;;;35.50;16.70;;;;;;;2.27;74.29;100436.81;5090582;28;19949;-67
2020/12/14 06:58:09;;;;;;;46.78;20.15;;;;;;;2.28;74.58;100441.13;5090746;28;20098;-65
2020/12/14 07:00:35;;;;;;;44.00;20.48;;;;;;;2.32;74.47;100435.09;5092886;28;20051;-66
2020/12/14 07:03:02;;;;;;;34.75;16.05;;;;;;;2.33;74.26;100442.00;5093130;28;20131;-65
2020/12/14 07:05:35;;;;;;;37.38;17.83;;;;;;;2.30;74.49;100437.69;5092705;28;20392;-65
2020/12/14 07:08:02;;;;;;;39.40;19.35;;;;;;;2.32;74.46;100435.09;5092757;28;20056;-65
2020/12/14 07:10:28;;;;;;;40.38;20.80;;;;;;;2.32;74.20;100437.69;5092717;28;20045;-66
2020/12/14 07:12:55;;;;;;;40.67;20.35;;;;;;;2.32;74.21;100435.97;5092983;28;20046;-65
2020/12/14 07:15:29;;;;;;;45.80;19.98;;;;;;;2.32;74.38;100435.09;5093009;28;20050;-65
2020/12/14 07:18:04;;;;;;;48.25;21.73;;;;;;;2.31;74.31;100438.56;5092939;28;20079;-65
2020/12/14 07:20:30;;;;;;;48.65;22.67;;;;;;;2.32;74.34;100435.09;5092681;28;20044;-65
2020/12/14 07:23:05;;;;;;;35.53;18.50;;;;;;;2.29;74.35;100448.91;5092413;28;20040;-65
2020/12/14 07:25:32;;;;;;;34.40;16.90;;;;;;;2.26;74.26;100442.84;5092597;28;20545;-67
2020/12/14 07:27:58;;;;;;;39.10;17.92;;;;;;;2.28;74.37;100446.28;5092521;28;20044;-66
2020/12/14 07:30:24;;;;;;;45.10;18.75;;;;;;;2.28;74.19;100446.28;5092922;28;20040;-64
2020/12/14 07:32:50;;;;;;;35.17;18.08;;;;;;;2.32;74.05;100445.44;5093114;28;20044;-65
2020/12/14 07:35:17;;;;;;;37.30;17.52;;;;;;;2.37;73.98;100459.22;5092731;28;20072;-66
2020/12/14 07:37:43;;;;;;;43.40;20.88;;;;;;;2.38;73.98;100448.00;5091940;28;20059;-66
2020/12/14 07:40:11;;;;;;;45.58;21.58;;;;;;;2.38;73.98;100450.59;5092490;28;20155;-65
2020/12/14 07:42:38;;;;;;;42.08;19.60;;;;;;;2.37;73.91;100446.28;5092576;28;20054;-65
2020/12/14 07:45:08;;;;;;;44.05;18.73;;;;;;;2.34;74.12;100449.75;5092559;28;20048;-65
2020/12/14 07:47:34;;;;;;;50.00;21.08;;;;;;;2.37;73.91;100451.47;5092333;28;20044;-65
2020/12/14 07:50:09;;;;;;;95.55;35.97;;;;;;;2.39;73.92;100457.50;5092724;28;20040;-66
2020/12/14 07:52:35;;;;;;;76.25;31.02;;;;;;;2.36;74.07;100460.09;5092414;28;20056;-66
2020/12/14 07:55:02;;;;;;;42.85;20.33;;;;;;;2.35;73.89;100460.97;5092592;28;20473;-65
2020/12/14 07:57:32;;;;;;;39.95;19.88;;;;;;;2.34;74.00;100464.41;5092141;28;20044;-65
2020/12/14 07:59:59;;;;;;;37.67;17.27;;;;;;;2.35;73.92;100460.97;5092731;28;20052;-67
2020/12/14 08:02:27;;;;;;;83.05;35.40;;;;;;;2.36;73.89;100467.84;5092014;28;20131;-65
2020/12/14 08:05:00;;;;;;;72.82;32.05;;;;;;;2.35;74.04;100477.34;5091871;28;20059;-65
2020/12/14 08:07:30;;;;;;;45.38;21.85;;;;;;;2.37;73.94;100474.75;5091548;28;20563;-67
2020/12/14 08:10:00;;;;;;;76.28;35.67;;;;;;;2.37;73.86;100470.44;5092726;28;20072;-66
2020/12/14 08:12:26;;;;;;;54.35;25.40;;;;;;;2.41;73.68;100471.28;5092114;28;20042;-65
2020/12/14 08:14:54;;;;;;;47.67;24.35;;;;;;;2.36;73.68;100473.91;5092007;28;20507;-67
2020/12/14 08:17:20;;;;;;;36.78;17.27;;;;;;;2.37;73.63;100462.69;5091865;28;20056;-66
2020/12/14 08:19:47;;;;;;;36.20;18.10;;;;;;;2.38;73.77;100458.38;5092237;28;20040;-66
2020/12/14 08:22:13;;;;;;;25.13;12.98;;;;;;;2.38;73.77;100463.53;5091914;28;20043;-64
2020/12/14 08:24:41;;;;;;;44.83;21.23;;;;;;;2.36;73.65;100467.84;5091993;28;20388;-64
2020/12/14 08:27:09;;;;;;;78.15;34.88;;;;;;;2.39;73.50;100467.84;5091853;28;20074;-65
2020/12/14 08:29:41;;;;;;;37.95;18.60;;;;;;;2.42;73.63;100465.25;5091950;28;20048;-65
2020/12/14 08:32:13;;;;;;;33.20;18.00;;;;;;;2.42;73.48;100467.84;5092044;28;20141;-65
2020/12/14 08:34:39;;;;;;;37.70;18.55;;;;;;;2.42;73.46;100473.88;5092114;28;20056;-65
2020/12/14 08:37:06;;;;;;;41.78;21.15;;;;;;;2.47;73.36;100473.00;5091887;28;20051;-65
2020/12/14 08:39:33;;;;;;;34.15;16.15;;;;;;;2.50;73.29;100480.75;5091787;28;20443;-66
2020/12/14 08:42:10;;;;;;;39.33;16.90;;;;;;;2.49;73.15;100485.06;5091592;28;20040;-66
2020/12/14 08:44:37;;;;;;;38.63;17.40;;;;;;;2.47;73.27;100479.03;5091623;28;20127;-65
2020/12/14 08:47:12;;;;;;;33.25;17.00;;;;;;;2.42;73.26;100479.06;5091822;28;20076;-66
2020/12/14 08:49:38;;;;;;;30.15;15.10;;;;;;;2.48;73.31;100479.91;5089711;28;20110;-65
2020/12/14 08:52:04;;;;;;;33.70;17.38;;;;;;;2.53;72.95;100486.81;5090759;28;20058;-65
2020/12/14 08:54:30;;;;;;;37.35;18.25;;;;;;;2.57;73.09;100479.91;5091004;28;20055;-66
2020/12/14 08:56:56;;;;;;;33.85;15.77;;;;;;;2.60;72.87;100472.97;5089560;28;20036;-66
2020/12/14 08:59:23;;;;;;;26.50;14.38;;;;;;;2.62;73.11;100479.00;5090368;28;20135;-67
2020/12/14 09:01:57;;;;;;;26.85;13.95;;;;;;;2.58;73.03;100477.31;5089998;28;20106;-67
2020/12/14 09:04:29;;;;;;;25.48;13.50;;;;;;;2.52;72.89;100474.75;5090085;28;20135;-66
2020/12/14 09:06:55;;;;;;;30.55;15.23;;;;;;;2.54;73.02;100473.00;5089742;28;20131;-66
2020/12/14 09:09:29;;;;;;;37.80;18.70;;;;;;;2.58;72.95;100474.72;5090733;28;20083;-67
2020/12/14 09:11:55;;;;;;;32.67;14.60;;;;;;;2.65;72.86;100475.56;5090314;28;20079;-67
2020/12/14 09:14:23;;;;;;;29.35;13.63;;;;;;;2.63;72.80;100475.56;5090043;28;20040;-66
2020/12/14 09:16:50;;;;;;;26.80;13.95;;;;;;;2.59;72.63;100471.25;5090028;28;20048;-66
2020/12/14 09:19:20;;;;;;;25.25;14.35;;;;;;;2.59;72.79;100476.44;5091425;28;20470;-67
2020/12/14 09:21:47;;;;;;;32.92;14.98;;;;;;;2.57;72.81;100470.41;5093679;28;20060;-66
2020/12/14 09:24:16;;;;;;;26.95;12.40;;;;;;;2.57;72.53;100472.13;5093925;28;20044;-66
2020/12/14 09:26:45;;;;;;;31.73;15.73;;;;;;;2.55;72.60;100466.97;5099305;28;20126;-67
2020/12/14 09:29:16;;;;;;;32.10;15.35;;;;;;;2.58;72.69;100469.53;5096890;28;20127;-67
2020/12/14 09:31:48;;;;;;;29.75;15.35;;;;;;;2.59;72.47;100460.91;5091284;28;20164;-71
2020/12/14 09:34:15;;;;;;;29.73;15.07;;;;;;;2.61;72.42;100469.53;5100001;28;20135;-70
2020/12/14 09:36:41;;;;;;;34.55;17.17;;;;;;;2.62;72.49;100460.91;5097734;28;20535;-71
2020/12/14 09:39:08;;;;;;;31.02;15.27;;;;;;;2.65;72.50;100454.84;5093987;28;20044;-72
2020/12/14 09:41:34;;;;;;;28.95;13.75;;;;;;;2.67;72.41;100456.56;5093216;28;20648;-71
2020/12/14 09:44:00;;;;;;;31.83;15.98;;;;;;;2.74;72.59;100460.88;5093743;28;20090;-71
2020/12/14 09:46:26;;;;;;;35.65;16.25;;;;;;;2.82;72.46;100462.56;5093761;28;20044;-71
2020/12/14 09:48:53;;;;;;;26.42;14.57;;;;;;;2.85;72.11;100454.78;5093809;28;20048;-71
2020/12/14 09:51:20;;;;;;;31.02;15.35;;;;;;;2.86;72.17;100456.50;5095582;28;20079;-71
2020/12/14 09:53:46;;;;;;;27.25;14.73;;;;;;;2.89;72.00;100448.72;5089582;28;20438;-71
2020/12/14 09:56:13;;;;;;;36.53;17.23;;;;;;;2.91;72.16;100457.34;5091855;28;20096;-70
2020/12/14 09:58:42;;;;;;;32.40;13.77;;;;;;;2.93;72.15;100460.81;5092180;28;20044;-70
2020/12/14 10:01:12;;;;;;;29.23;15.05;;;;;;;2.86;72.21;100454.78;5092194;28;20427;-74
2020/12/14 10:03:39;;;;;;;32.63;14.77;;;;;;;2.89;72.04;100452.16;5089686;28;20135;-72
2020/12/14 10:08:45;;;;;;;32.42;17.42;;;;;;;2.90;72.09;100446.13;5046610;28;20389;-76
2020/12/14 10:11:11;;;;;;;31.02;15.85;;;;;;;2.94;72.15;100447.00;5042191;28;20090;-79
2020/12/14 10:13:39;;;;;;;32.10;16.20;;;;;;;2.99;71.86;100440.06;5029356;28;20084;-78
2020/12/14 10:16:06;;;;;;;35.72;18.45;;;;;;;3.03;72.00;100431.41;5027197;28;20561;-74
2020/12/14 10:18:32;;;;;;;34.67;19.50;;;;;;;3.08;72.01;100433.97;5027031;28;20573;-72
2020/12/14 10:21:00;;;;;;;36.42;19.45;;;;;;;3.14;71.87;100428.78;5027415;28;20076;-71
2020/12/14 10:23:27;;;;;;;53.28;27.00;;;;;;;3.15;71.76;100426.16;5027315;28;20076;-74
2020/12/14 10:25:54;;;;;;;41.05;20.80;;;;;;;3.24;71.55;100428.69;5026850;28;20519;-74
2020/12/14 10:28:20;;;;;;;42.80;25.17;;;;;;;3.34;71.32;100430.38;5026739;28;20052;-72
2020/12/14 10:30:47;;;;;;;43.67;23.50;;;;;;;3.35;71.34;100439.88;5026565;28;20056;-67
2020/12/14 10:33:13;;;;;;;49.00;25.13;;;;;;;3.31;71.41;100443.31;5026979;28;20053;-70
2020/12/14 10:35:39;;;;;;;37.38;19.08;;;;;;;3.36;71.17;100438.16;5028477;28;20049;-64
2020/12/14 10:38:06;;;;;;;45.72;23.75;;;;;;;3.39;71.19;100439.84;5028330;28;20115;-64
2020/12/14 10:40:32;;;;;;;58.92;30.50;;;;;;;3.38;71.07;100431.22;5027661;28;20541;-63
2020/12/14 10:42:59;;;;;;;65.07;29.63;;;;;;;3.42;70.98;100429.47;5027650;28;20108;-63
2020/12/14 10:45:25;;;;;;;45.17;23.88;;;;;;;3.42;71.06;100432.06;5027993;28;20053;-64
2020/12/14 10:47:52;;;;;;;52.55;26.17;;;;;;;3.40;70.94;100432.06;5027713;28;20056;-66
2020/12/14 10:50:19;;;;;;;38.75;17.60;;;;;;;3.46;70.97;100433.75;5027880;28;20148;-65
2020/12/14 10:52:45;;;;;;;40.90;19.48;;;;;;;3.49;70.79;100436.31;5027702;28;20045;-66
2020/12/14 10:55:12;;;;;;;36.72;20.27;;;;;;;3.50;70.92;100435.44;5027127;28;20048;-66
2020/12/14 10:57:38;;;;;;;34.35;17.90;;;;;;;3.51;70.76;100430.25;5027356;28;20081;-65
2020/12/14 11:00:07;;;;;;;32.22;19.05;;;;;;;3.54;70.72;100439.72;5026606;28;20095;-65
2020/12/14 11:02:35;;;;;;;37.65;20.02;;;;;;;3.56;70.83;100448.38;5026785;28;20054;-72
2020/12/14 11:05:03;;;;;;;39.53;19.52;;;;;;;3.59;70.66;100444.03;5027291;28;20078;-70
2020/12/14 11:07:30;;;;;;;43.75;22.33;;;;;;;3.65;70.54;100448.31;5026585;28;20140;-71
2020/12/14 11:09:56;;;;;;;42.22;21.98;;;;;;;3.70;70.46;100445.69;5026844;28;20050;-70
2020/12/14 11:12:22;;;;;;;37.60;20.05;;;;;;;3.74;70.39;100448.22;5026566;28;20481;-71
2020/12/14 11:14:48;;;;;;;41.47;21.15;;;;;;;3.79;70.29;100443.91;5027085;28;20136;-69
2020/12/14 11:17:15;;;;;;;40.35;18.90;;;;;;;3.77;70.23;100443.03;5026909;28;20042;-70
2020/12/14 11:19:42;;;;;;;34.67;18.88;;;;;;;3.77;70.18;100445.63;5014578;28;20065;-70
2020/12/14 11:22:08;;;;;;;37.58;18.65;;;;;;;3.77;70.10;100447.38;5013452;28;20136;-70